Data for 01/04/2016

Time Sea-Level Adjusted Pressure Absolute Pressure Temperature Relative Humidity Dew Point   
(mb) (inHg) (mb) (inHg) (C) (F) (%) (C) (F)
00:05 1018 30.06 847 25.01 -8.7 16.3 70 -13.2 8.2
00:10 1018 30.06 847 25.01 -9.2 15.4 74 -13.1 8.5
00:15 1018 30.06 847 25.01 -9 15.7 71 -13.4 7.9
00:20 1018 30.06 847 25.01 -8.2 17.2 68 -13.1 8.5
00:25 1018 30.06 847 25.01 -8.5 16.6 70 -13 8.6
00:30 1017 30.03 847 25.01 -8.1 17.4 67 -13.2 8.3
00:35 1017 30.03 847 25.01 -8 17.6 69 -12.8 9
00:40 1017 30.03 847 25.01 -7.8 18 70 -12.4 9.7
00:45 1017 30.03 847 25.01 -7.6 18.2 68 -12.5 9.5
00:50 1017 30.03 847 25.01 -7.7 18.2 70 -12.2 10.1
00:55 1017 30.03 847 25.01 -8.4 16.8 71 -12.7 9.1
01:00 1017 30.03 847 25.01 -7.9 17.8 70 -12.5 9.5
01:05 1017 30.03 846 24.98 -7.6 18.4 70 -12.1 10.1
01:10 1017 30.03 846 24.98 -7.3 19 66 -12.5 9.5
01:15 1017 30.03 846 24.98 -7.9 17.8 73 -12 10.4
01:20 1017 30.03 846 24.98 -7.4 18.8 69 -12.1 10.3
01:25 1017 30.03 846 24.98 -8.2 17.3 74 -12 10.4
01:30 1017 30.03 846 24.98 -7.2 19.1 69 -11.9 10.6
01:35 1017 30.03 846 24.98 -7 19.5 69 -11.6 11
01:40 1017 30.03 846 24.98 -7.1 19.3 69 -11.8 10.7
01:45 1017 30.03 846 24.98 -7.2 19 69 -11.9 10.5
01:50 1017 30.03 846 24.98 -7.4 18.7 75 -11.1 12
01:55 1017 30.03 846 24.98 -7.1 19.2 72 -11.4 11.5
02:00 1017 30.03 846 24.98 -7.3 18.9 73 -11.4 11.5
02:05 1017 30.03 846 24.98 -6.7 20 75 -10.5 13.2
02:10 1017 30.03 846 24.98 -5.6 21.9 64 -11.4 11.5
02:15 1017 30.03 846 24.98 -6.1 21.1 70 -10.7 12.7
02:20 1017 30.03 846 24.98 -6.6 20.2 67 -11.8 10.8
02:25 1017 30.03 846 24.98 -7.5 18.5 76 -11 12.2
02:30 1017 30.03 846 24.98 -7.1 19.3 69 -11.8 10.7
02:35 1017 30.03 846 24.98 -7.1 19.2 70 -11.6 11.1
02:40 1017 30.03 846 24.98 -7.5 18.4 71 -12 10.4
02:45 1017 30.03 846 24.98 -8.3 17 75 -12 10.4
02:50 1017 30.03 846 24.98 -8.4 17 76 -11.8 10.7
02:55 1017 30.03 846 24.98 -8.2 17.2 75 -11.9 10.5
03:00 1017 30.03 846 24.98 -7.4 18.6 70 -12 10.4
03:05 1016 30 846 24.98 -7.2 19.1 75 -10.9 12.5
03:10 1016 30 846 24.98 -6.5 20.3 68 -11.5 11.3
03:15 1017 30.03 846 24.98 -6.7 19.9 68 -11.6 11.1
03:20 1017 30.03 846 24.98 -7.3 18.8 71 -11.7 11
03:25 1017 30.03 846 24.98 -7.8 17.9 72 -12 10.3
03:30 1017 30.03 846 24.98 -7.8 17.9 73 -11.9 10.6
03:35 1017 30.03 846 24.98 -7.7 18.1 70 -12.3 9.9
03:40 1017 30.03 846 24.98 -7.8 18 72 -12 10.3
03:45 1017 30.03 846 24.98 -7.7 18.1 71 -12.1 10.2
03:50 1017 30.03 846 24.98 -7.8 18.1 72 -12 10.4
03:55 1017 30.03 846 24.98 -8 17.5 73 -12 10.3
04:00 1017 30.03 846 24.98 -8 17.6 72 -12.2 10.1
04:05 1017 30.03 846 24.98 -8.2 17.3 72 -12.3 9.8
04:10 1017 30.03 846 24.98 -7.6 18.3 71 -12 10.5
04:15 1017 30.03 846 24.98 -7.8 18.1 73 -11.8 10.8
04:20 1017 30.03 846 24.98 -7.9 17.8 72 -12.1 10.2
04:25 1017 30.03 846 24.98 -7.2 19.1 71 -11.6 11.1
04:30 1016 30 846 24.98 -6.8 19.7 70 -11.5 11.3
04:35 1016 30 846 24.98 -6.3 20.7 68 -11.2 11.8
04:40 1016 30 846 24.98 -6.1 21.1 68 -11 12.1
04:45 1016 30 846 24.98 -5.7 21.7 67 -11 12.2
04:50 1016 30 845 24.95 -5.9 21.4 68 -11 12.2
04:55 1016 30 845 24.95 -6 21.2 68 -10.9 12.3
05:00 1016 30 845 24.95 -5.9 21.4 68 -10.8 12.5
05:05 1016 30 845 24.95 -5.8 21.5 66 -11.2 11.9
05:10 1016 30 845 24.95 -6.1 21.1 69 -10.9 12.4
05:15 1016 30 845 24.95 -6.5 20.3 73 -10.7 12.8
05:20 1016 30 845 24.95 -6.6 20.1 72 -10.9 12.3
05:25 1016 30 845 24.95 -6.6 20.1 73 -10.7 12.7
05:30 1016 30 845 24.95 -6.3 20.6 72 -10.6 12.9
05:35 1016 30 845 24.95 -6.2 20.8 72 -10.4 13.2
05:40 1016 30 845 24.95 -5.7 21.7 71 -10.2 13.6
05:45 1016 30 845 24.95 -5.9 21.4 74 -9.8 14.4
05:50 1016 30 845 24.95 -5.6 21.9 75 -9.3 15.2
05:55 1016 30 845 24.95 -4.8 23.4 67 -9.9 14.1
06:00 1016 30 845 24.95 -4.5 23.9 68 -9.4 15
06:05 1016 30 845 24.95 -4.3 24.3 68 -9.4 15.1
06:10 1016 30 845 24.95 -4.2 24.4 68 -9.3 15.3
06:15 1016 30 845 24.95 -4.2 24.5 66 -9.6 14.7
06:20 1016 30 845 24.95 -4.1 24.6 65 -9.7 14.6
06:25 1016 30 845 24.95 -3.9 25 64 -9.7 14.6
06:30 1016 30 845 24.95 -3.9 25 64 -9.7 14.5
06:35 1016 30 845 24.95 -4.2 24.5 65 -9.8 14.3
06:40 1016 30 845 24.95 -4.5 23.9 66 -9.8 14.3
06:45 1016 30 845 24.95 -4.5 24 66 -9.8 14.4
06:50 1016 30 845 24.95 -4.2 24.5 65 -9.8 14.3
06:55 1016 30 846 24.98 -4.2 24.4 67 -9.4 15
07:00 1016 30 845 24.95 -4.8 23.4 69 -9.6 14.8
07:05 1016 30 845 24.95 -4.9 23.2 69 -9.7 14.6
07:10 1016 30 845 24.95 -5 22.9 71 -9.5 14.8
07:15 1016 30 845 24.95 -5 23.1 70 -9.7 14.6
07:20 1016 30 845 24.95 -4.5 24 67 -9.7 14.5
07:25 1016 30 845 24.95 -4.5 24 68 -9.4 15
07:30 1016 30 845 24.95 -4.3 24.2 67 -9.5 14.9
07:35 1016 30 845 24.95 -4.4 24.1 68 -9.5 15
07:40 1016 30 845 24.95 -4.3 24.2 67 -9.5 14.9
07:45 1016 30 845 24.95 -4.2 24.4 67 -9.5 14.9
07:50 1016 30 845 24.95 -4 24.8 66 -9.4 15
07:55 1016 30 845 24.95 -4 24.8 66 -9.4 15
08:00 1016 30 845 24.95 -3.8 25.2 66 -9.3 15.3
08:05 1016 30 845 24.95 -3.7 25.4 65 -9.3 15.3
08:10 1016 30 845 24.95 -3.9 24.9 67 -9.3 15.3
08:15 1016 30 845 24.95 -4 24.8 67 -9.3 15.2
08:20 1016 30 845 24.95 -4 24.9 67 -9.3 15.3
08:25 1016 30 845 24.95 -3.9 24.9 66 -9.4 15
08:30 1016 30 845 24.95 -3.6 25.6 64 -9.3 15.2
08:35 1016 30 845 24.95 -3.3 26 65 -9 15.8
08:40 1016 30 845 24.95 -3.1 26.3 65 -8.9 16
08:45 1016 30 845 24.95 -3.1 26.4 64 -9 15.8
08:50 1016 30 845 24.95 -3 26.6 63 -9.1 15.6
08:55 1016 30 845 24.95 -3 26.7 63 -9.1 15.7
09:00 1016 30 845 24.95 -2.9 26.7 62 -9.2 15.5
09:05 1016 30 845 24.95 -3.1 26.5 63 -9.1 15.6
09:10 1016 30 845 24.95 -3.7 25.4 65 -9.3 15.2
09:15 1016 30 845 24.95 -4.7 23.5 70 -9.4 15.1
09:20 1016 30 845 24.95 -5.7 21.8 74 -9.6 14.8
09:25 1016 30 845 24.95 -5.7 21.7 69 -10.6 12.9
09:30 1016 30 845 24.95 -5.8 21.6 72 -10 13.9
09:35 1016 30 845 24.95 -5.3 22.5 69 -10.2 13.7
09:40 1016 30 845 24.95 -5.1 22.8 71 -9.5 14.8
09:45 1016 30 845 24.95 -5.2 22.6 70 -9.8 14.4
09:50 1016 30 845 24.95 -5.3 22.5 71 -9.8 14.4
09:55 1016 30 845 24.95 -5.4 22.3 69 -10.2 13.6
10:00 1016 30 845 24.95 -5.7 21.7 71 -10.1 13.8
10:05 1016 30 845 24.95 -6 21.2 72 -10.2 13.6
10:10 1016 30 845 24.95 -6.2 20.9 72 -10.4 13.2
10:15 1016 30 845 24.95 -5.9 21.4 69 -10.7 12.7
10:20 1016 30 845 24.95 -6.3 20.7 71 -10.7 12.7
10:25 1016 30 845 24.95 -6.5 20.3 72 -10.8 12.6
10:30 1016 30 845 24.95 -6.5 20.2 72 -10.9 12.4
10:35 1016 30 845 24.95 -6.6 20.1 73 -10.8 12.6
10:40 1016 30 845 24.95 -5.9 21.5 71 -10.4 13.3
10:45 1016 30 845 24.95 -5.1 22.8 66 -10.4 13.3
10:50 1016 30 845 24.95 -5.2 22.7 67 -10.3 13.4
10:55 1016 30 845 24.95 -4.9 23.2 67 -10.2 13.7
11:00 1016 30 845 24.95 -4.9 23.2 67 -10.2 13.7
11:05 1016 30 845 24.95 -4.4 24.1 62 -10.5 13
11:10 1016 30 845 24.95 -3.5 25.7 60 -10.2 13.7
11:15 1016 30 845 24.95 -3.3 26.1 59 -10.2 13.7
11:20 1016 30 845 24.95 -2.3 27.9 56 -10 14
11:25 1016 30 845 24.95 -1.7 29 54 -9.7 14.6
11:30 1016 30 845 24.95 -0.8 30.5 51 -9.8 14.4
11:35 1016 30 845 24.95 0 32.1 48 -9.6 14.7
11:40 1016 30 845 24.95 -0 31.9 51 -9.1 15.6
11:45 1016 30 845 24.95 -0.4 31.3 51 -9.3 15.2
11:50 1016 30 845 24.95 -0.5 31.1 52 -9.3 15.3
11:55 1016 30 845 24.95 -0.6 31 52 -9.3 15.3
12:00 1016 30 845 24.95 -0.7 30.8 53 -9.2 15.4
12:05 1016 30 845 24.95 -0.7 30.7 55 -8.6 16.5
12:10 1016 30 845 24.95 -1 30.2 55 -9 15.8
12:15 1015 29.97 845 24.95 -1.3 29.6 57 -8.8 16.1
12:20 1015 29.97 845 24.95 -1.9 28.6 61 -8.4 17
12:25 1015 29.97 845 24.95 -2.2 28.1 59 -9.1 15.6
12:30 1015 29.97 844 24.92 -1.9 28.5 59 -9 15.8
12:35 1015 29.97 844 24.92 -1.9 28.6 58 -9.1 15.7
12:40 1015 29.97 844 24.92 -1.8 28.9 57 -9.2 15.4
12:45 1015 29.97 844 24.92 -1.7 28.9 57 -9.2 15.5
12:50 1015 29.97 844 24.92 -1.6 29.1 56 -9.2 15.4
12:55 1015 29.97 844 24.92 -1.5 29.3 56 -9.2 15.4
13:00 1015 29.97 844 24.92 -1.3 29.7 57 -8.8 16.1
13:05 1015 29.97 844 24.92 -1.6 29.2 60 -8.4 16.8
13:10 1015 29.97 844 24.92 -2.1 28.3 60 -8.9 16
13:15 1015 29.97 844 24.92 -1.8 28.7 57 -9.2 15.5
13:20 1015 29.97 844 24.92 -1.8 28.8 57 -9.2 15.4
13:25 1014 29.94 844 24.92 -1.8 28.8 56 -9.4 15.1
13:30 1014 29.94 844 24.92 -1.9 28.5 57 -9.3 15.2
13:35 1014 29.94 844 24.92 -1.9 28.6 56 -9.5 15
13:40 1014 29.94 844 24.92 -1.9 28.5 58 -9.2 15.5
13:45 1014 29.94 843 24.89 -2.1 28.2 58 -9.3 15.3
13:50 1014 29.94 843 24.89 -2 28.4 58 -9.2 15.5
13:55 1014 29.94 843 24.89 -1.7 28.9 57 -9.1 15.6
14:00 1014 29.94 843 24.89 -1.7 29 57 -9.1 15.6
14:05 1014 29.94 843 24.89 -1.8 28.8 57 -9.3 15.3
14:10 1014 29.94 843 24.89 -1.6 29.2 56 -9.2 15.4
14:15 1014 29.94 843 24.89 -1.4 29.6 55 -9.4 15.1
14:20 1014 29.94 843 24.89 -1.4 29.5 55 -9.3 15.2
14:25 1014 29.94 843 24.89 -0.8 30.5 53 -9.2 15.4
14:30 1014 29.94 843 24.89 -0.8 30.6 54 -9.1 15.7
14:35 1014 29.94 843 24.89 -0.3 31.4 54 -8.6 16.5
14:40 1013 29.91 843 24.89 0.2 32.4 52 -8.5 16.7
14:45 1014 29.94 843 24.89 0.5 32.9 52 -8.3 17
14:50 1013 29.91 843 24.89 1.2 34.1 50 -8.1 17.4
14:55 1013 29.91 843 24.89 0.8 33.5 50 -8.4 16.9
15:00 1013 29.91 843 24.89 0.9 33.6 50 -8.4 16.9
15:05 1013 29.91 843 24.89 1.6 34.9 46 -8.9 16
15:10 1013 29.91 843 24.89 2.5 36.5 44 -8.6 16.5
15:15 1013 29.91 843 24.89 2.3 36.2 46 -8 17.5
15:20 1013 29.91 843 24.89 2.2 35.9 46 -8.4 16.9
15:25 1013 29.91 843 24.89 2.1 35.7 45 -8.7 16.4
15:30 1013 29.91 843 24.89 1.8 35.3 44 -9.3 15.3
15:35 1013 29.91 843 24.89 1.6 34.8 46 -8.8 16.2
15:40 1013 29.91 843 24.89 1 33.9 46 -9.2 15.4
15:45 1013 29.91 842 24.86 1.1 34 50 -8.3 17
15:50 1013 29.91 842 24.86 1 33.8 48 -8.9 15.9
15:55 1013 29.91 842 24.86 0.8 33.4 50 -8.5 16.8
16:00 1013 29.91 842 24.86 0.7 33.3 49 -8.9 16.1
16:05 1013 29.91 842 24.86 0.8 33.4 48 -9 15.9
16:10 1013 29.91 842 24.86 0.5 32.9 49 -8.9 15.9
16:15 1013 29.91 842 24.86 0.2 32.4 54 -8.1 17.5
16:20 1013 29.91 842 24.86 -0.5 31.1 56 -8.2 17.2
16:25 1013 29.91 842 24.86 -0.7 30.8 55 -8.5 16.6
16:30 1013 29.91 842 24.86 -0.9 30.5 56 -8.5 16.7
16:35 1013 29.91 842 24.86 -1.1 30.1 57 -8.6 16.5
16:40 1013 29.91 842 24.86 -1.1 30.1 56 -8.9 16.1
16:45 1013 29.91 842 24.86 -0.8 30.5 54 -8.9 15.9
16:50 1013 29.91 842 24.86 -0.6 30.9 53 -9 15.8
16:55 1013 29.91 843 24.89 -0.5 31.1 54 -8.8 16.2
17:00 1013 29.91 843 24.89 -1 30.2 56 -8.7 16.3
17:05 1013 29.91 843 24.89 -1.3 29.7 57 -8.7 16.3
17:10 1013 29.91 843 24.89 -1.3 29.6 58 -8.6 16.6
17:15 1013 29.91 843 24.89 -1.2 29.8 57 -8.7 16.3
17:20 1013 29.91 842 24.86 -1.3 29.6 58 -8.6 16.6
17:25 1013 29.91 842 24.86 -1.6 29.2 59 -8.6 16.5
17:30 1013 29.91 842 24.86 -1.7 29 60 -8.4 16.9
17:35 1013 29.91 842 24.86 -1.9 28.6 61 -8.4 16.9
17:40 1013 29.91 842 24.86 -2.1 28.3 62 -8.4 17
17:45 1013 29.91 842 24.86 -2.1 28.2 61 -8.8 16.2
17:50 1013 29.91 842 24.86 -2 28.4 61 -8.6 16.6
17:55 1013 29.91 842 24.86 -2.1 28.3 62 -8.4 16.9
18:00 1013 29.91 842 24.86 -2.2 28.1 62 -8.4 16.8
18:05 1013 29.91 842 24.86 -2.2 28.1 63 -8.4 16.9
18:10 1013 29.91 842 24.86 -2.2 28.1 62 -8.5 16.7
18:15 1013 29.91 842 24.86 -2.2 28 62 -8.5 16.7
18:20 1013 29.91 842 24.86 -2.1 28.2 61 -8.6 16.5
18:25 1013 29.91 842 24.86 -2.2 28 61 -8.7 16.3
18:30 1013 29.91 842 24.86 -2.2 28 60 -8.9 16
18:35 1013 29.91 842 24.86 -2.2 28.1 61 -8.8 16.2
18:40 1013 29.91 842 24.86 -2.3 27.9 61 -8.8 16.1
18:45 1013 29.91 842 24.86 -2.2 28.1 60 -8.9 15.9
18:50 1013 29.91 842 24.86 -2.1 28.2 60 -8.9 16
18:55 1013 29.91 842 24.86 -2.2 28 60 -8.9 15.9
19:00 1013 29.91 842 24.86 -2.2 28 60 -9.1 15.7
19:05 1013 29.91 842 24.86 -2.1 28.1 61 -8.8 16.2
19:10 1013 29.91 842 24.86 -2.1 28.2 61 -8.6 16.5
19:15 1013 29.91 842 24.86 -2.2 28.1 61 -8.7 16.4
19:20 1013 29.91 842 24.86 -2 28.3 60 -8.9 16.1
19:25 1013 29.91 842 24.86 -2 28.4 59 -9.1 15.6
19:30 1013 29.91 842 24.86 -1.9 28.5 59 -8.9 15.9
19:35 1013 29.91 842 24.86 -1.7 28.9 56 -9.5 15
19:40 1013 29.91 842 24.86 -1.6 29.2 53 -9.9 14.3
19:45 1013 29.91 842 24.86 -1.3 29.7 55 -9.2 15.5
19:50 1013 29.91 842 24.86 -1.6 29.2 57 -9 15.9
19:55 1013 29.91 842 24.86 -2.1 28.3 61 -8.6 16.6
20:00 1013 29.91 842 24.86 -2.7 27.2 62 -9 15.8
20:05 1013 29.91 842 24.86 -2.9 26.9 62 -9.1 15.7
20:10 1013 29.91 842 24.86 -2.9 26.7 64 -8.8 16.1
20:15 1013 29.91 842 24.86 -2.9 26.7 62 -9.3 15.2
20:20 1013 29.91 842 24.86 -2.4 27.7 61 -9 15.8
20:25 1013 29.91 842 24.86 -2.1 28.2 61 -8.5 16.6
20:30 1013 29.91 842 24.86 -2.2 28.1 64 -8.2 17.3
20:35 1013 29.91 842 24.86 -2.5 27.5 65 -8.2 17.3
20:40 1013 29.91 842 24.86 -2.6 27.4 66 -8.2 17.3
20:45 1012 29.88 842 24.86 -2.6 27.4 66 -8.1 17.3
20:50 1012 29.88 842 24.86 -2.7 27.1 68 -7.8 17.9
20:55 1012 29.88 842 24.86 -2.7 27.2 66 -8.1 17.3
21:00 1012 29.88 842 24.86 -2.6 27.3 66 -8.1 17.4
21:05 1012 29.88 842 24.86 -2.4 27.7 62 -8.8 16.2
21:10 1012 29.88 842 24.86 -1.9 28.6 61 -8.5 16.7
21:15 1012 29.88 842 24.86 -1.9 28.6 62 -8.1 17.4
21:20 1012 29.88 842 24.86 -2.3 27.9 64 -8.3 17.1
21:25 1012 29.88 842 24.86 -2.1 28.2 63 -8.3 17.1
21:30 1012 29.88 842 24.86 -1.9 28.6 63 -8.1 17.4
21:35 1012 29.88 841 24.83 -1.9 28.6 62 -8.3 17
21:40 1012 29.88 841 24.83 -1.8 28.8 62 -8.1 17.4
21:45 1012 29.88 841 24.83 -1.8 28.8 63 -7.9 17.7
21:50 1012 29.88 842 24.86 -2 28.4 63 -8.1 17.4
21:55 1012 29.88 841 24.83 -1.7 28.9 63 -7.9 17.8
22:00 1012 29.88 841 24.83 -1.7 28.9 63 -7.9 17.8
22:05 1012 29.88 841 24.83 -1.6 29.2 60 -8.3 17.1
22:10 1012 29.88 841 24.83 -1.3 29.6 64 -7.3 18.8
22:15 1012 29.88 841 24.83 -2.4 27.6 67 -7.7 18.2
22:20 1012 29.88 841 24.83 -2 28.4 63 -8.1 17.4
22:25 1012 29.88 841 24.83 -2 28.4 60 -8.8 16.1
22:30 1012 29.88 841 24.83 -1.6 29.2 54 -9.6 14.7
22:35 1012 29.88 841 24.83 -1 30.2 60 -7.7 18.1
22:40 1012 29.88 841 24.83 -1.1 30 54 -9.3 15.3
22:45 1012 29.88 841 24.83 -0.6 31 55 -8.6 16.5
22:50 1012 29.88 841 24.83 -0.5 31.1 58 -7.8 18
22:55 1012 29.88 841 24.83 -0.5 31.2 57 -8 17.5
23:00 1012 29.88 841 24.83 -0.2 31.6 57 -7.7 18.1
23:05 1012 29.88 841 24.83 -0.1 31.7 57 -7.6 18.3
23:10 1012 29.88 841 24.83 0.1 32.3 57 -7.3 18.8
23:15 1012 29.88 841 24.83 0.2 32.3 58 -7.1 19.2
23:20 1012 29.88 841 24.83 -0 31.9 59 -7.2 19.1
23:25 1012 29.88 841 24.83 -0.9 30.3 62 -7.2 19
23:30 1012 29.88 841 24.83 -1.4 29.6 64 -7.4 18.7
23:35 1012 29.88 841 24.83 -1.4 29.5 63 -7.5 18.5
23:40 1012 29.88 841 24.83 -1.7 29 67 -7 19.4
23:45 1012 29.88 841 24.83 -2 28.4 67 -7.3 18.8
23:50 1012 29.88 841 24.83 -2.1 28.2 68 -7.3 18.8
23:55 1012 29.88 841 24.83 -2.2 28.1 69 -7 19.3
24:00 1012 29.88 841 24.83 -2.2 28.1 68 -7.2 19